createdAt,value
2022-10-05T00:03:16.743Z,101915.56
2022-10-05T00:08:15.972Z,102054.28
2022-10-05T00:13:15.839Z,102057.16
2022-10-05T00:18:15.584Z,102085.56
2022-10-05T00:23:15.472Z,102057.19
2022-10-05T00:28:18.074Z,102102.50
2022-10-05T00:33:11.336Z,102102.81
2022-10-05T00:38:04.568Z,102066.16
2022-10-05T00:43:13.526Z,102122.34
2022-10-05T00:48:20.050Z,102087.97
2022-10-05T00:53:27.121Z,102097.16
2022-10-05T00:58:33.875Z,102098.19
2022-10-05T01:03:37.736Z,102119.53
2022-10-05T01:08:41.693Z,102091.94
2022-10-05T01:13:46.052Z,102136.31
2022-10-05T01:18:51.349Z,102104.44
2022-10-05T01:24:26.712Z,102085.31
2022-10-05T01:29:24.804Z,102147.00
2022-10-05T01:34:27.986Z,102159.34
2022-10-05T01:39:28.733Z,102146.78
2022-10-05T01:44:31.546Z,102134.41
2022-10-05T01:49:38.797Z,102136.88
2022-10-05T01:54:45.552Z,102135.09
2022-10-05T01:59:58.734Z,102057.09
2022-10-05T02:05:02.068Z,102123.25
2022-10-05T02:10:01.463Z,102152.97
2022-10-05T02:15:01.515Z,102119.88
2022-10-05T02:20:01.239Z,102168.56
2022-10-05T02:24:59.253Z,102180.31
2022-10-05T02:29:58.050Z,102157.97
2022-10-05T02:34:52.434Z,102188.84
2022-10-05T02:40:08.632Z,102168.03
2022-10-05T02:45:15.425Z,102199.72
2022-10-05T02:50:17.144Z,102206.88
2022-10-05T02:55:18.085Z,102185.22
2022-10-05T03:00:17.883Z,102181.09
2022-10-05T03:05:21.487Z,102095.41
2022-10-05T03:10:25.835Z,102198.91
2022-10-05T03:15:56.374Z,102207.09
2022-10-05T03:20:58.583Z,102245.94
2022-10-05T03:26:10.519Z,102186.44
2022-10-05T03:31:11.153Z,102219.22
2022-10-05T03:36:13.461Z,102271.44
2022-10-05T03:41:14.099Z,102258.69
2022-10-05T03:46:13.915Z,102274.66
2022-10-05T03:51:13.555Z,102264.16
2022-10-05T03:56:14.888Z,102258.19
2022-10-05T04:01:14.391Z,102276.06
2022-10-05T04:06:14.811Z,102248.25
2022-10-05T04:11:23.747Z,102283.06
2022-10-05T04:16:23.528Z,102321.69
2022-10-05T04:21:24.509Z,102264.25
2022-10-05T04:26:26.247Z,102276.25
2022-10-05T04:31:41.594Z,102349.78
2022-10-05T04:36:42.204Z,102338.91
2022-10-05T04:41:49.785Z,102353.06
2022-10-05T04:47:03.497Z,102209.47
2022-10-05T04:52:06.935Z,102348.66
2022-10-05T04:57:03.503Z,102342.66
2022-10-05T05:02:06.871Z,102372.16
2022-10-05T05:07:13.429Z,102377.81
2022-10-05T05:12:20.713Z,102340.88
2022-10-05T05:17:32.326Z,102363.59
2022-10-05T05:22:34.908Z,102389.97
2022-10-05T05:27:42.592Z,102347.03
2022-10-05T05:32:52.634Z,102397.38
2022-10-05T05:37:53.603Z,102398.38
2022-10-05T05:42:56.791Z,102406.28
2022-10-05T05:47:57.051Z,102387.63
2022-10-05T05:52:56.671Z,102367.09
2022-10-05T05:57:56.577Z,102396.53
2022-10-05T06:02:58.394Z,102311.16
2022-10-05T06:07:55.203Z,102428.25
2022-10-05T06:12:54.966Z,102406.41
2022-10-05T06:17:54.819Z,102396.50
2022-10-05T06:22:52.646Z,102447.84
2022-10-05T06:28:03.427Z,102345.63
2022-10-05T06:33:12.938Z,102434.34
2022-10-05T06:38:26.182Z,102418.69
2022-10-05T06:43:49.579Z,102445.22
2022-10-05T06:49:19.607Z,102462.09
2022-10-05T06:54:43.965Z,102480.84
2022-10-05T06:59:50.592Z,102439.38
2022-10-05T07:04:58.619Z,102479.19
2022-10-05T07:10:07.337Z,102448.03
2022-10-05T07:15:16.687Z,102464.19
2022-10-05T07:20:17.775Z,102453.97
2022-10-05T07:25:18.151Z,102440.69
2022-10-05T07:30:17.338Z,102432.44
2022-10-05T07:35:33.110Z,102488.22
2022-10-05T07:40:33.106Z,102465.03
2022-10-05T07:45:31.003Z,102474.72
2022-10-05T07:50:31.929Z,102461.84
2022-10-05T07:55:33.950Z,102486.06
2022-10-05T08:00:43.291Z,102485.13
2022-10-05T08:05:42.818Z,102498.31
2022-10-05T08:10:46.416Z,102335.91
2022-10-05T08:15:44.190Z,102497.59
2022-10-05T08:20:45.294Z,102470.84
2022-10-05T08:25:50.840Z,102494.59
2022-10-05T08:30:59.088Z,102491.34
2022-10-05T08:36:03.017Z,102478.03
2022-10-05T08:41:28.277Z,102410.78
2022-10-05T08:46:39.447Z,102483.47
2022-10-05T08:52:14.934Z,102492.25
2022-10-05T08:57:53.198Z,102484.94
2022-10-05T09:03:13.358Z,102372.66
2022-10-05T09:08:32.001Z,102505.00
2022-10-05T09:13:54.845Z,102490.63
2022-10-05T09:19:09.061Z,102513.75
2022-10-05T09:24:22.028Z,102517.97
2022-10-05T09:30:03.692Z,102516.25
2022-10-05T09:35:23.234Z,102515.19
2022-10-05T09:41:06.345Z,102502.53
2022-10-05T09:46:40.546Z,102514.06
2022-10-05T09:52:08.199Z,102515.09
2022-10-05T09:57:23.516Z,102490.88
2022-10-05T10:02:30.549Z,102465.31
2022-10-05T10:07:43.226Z,102483.88
2022-10-05T10:12:59.675Z,102464.34
2022-10-05T10:18:24.127Z,102428.75
2022-10-05T10:23:49.927Z,102435.38
2022-10-05T10:29:12.171Z,102479.13
2022-10-05T10:34:52.987Z,102472.66
2022-10-05T10:40:10.481Z,102443.66
2022-10-05T10:45:20.778Z,102422.34
2022-10-05T10:50:33.332Z,102449.34
2022-10-05T10:55:35.263Z,102423.38
2022-10-05T11:00:48.852Z,102434.50
2022-10-05T11:06:41.047Z,102416.13
2022-10-05T11:12:09.965Z,102397.97
2022-10-05T11:17:29.557Z,102390.53
2022-10-05T11:22:40.260Z,102374.94
2022-10-05T11:28:02.517Z,102372.88
2022-10-05T11:33:52.114Z,102370.22
2022-10-05T11:39:09.900Z,102396.31
2022-10-05T11:44:33.663Z,102399.22
2022-10-05T11:49:37.582Z,102384.06
2022-10-05T11:55:16.181Z,102364.88
2022-10-05T12:00:19.150Z,102423.94
2022-10-05T12:05:22.387Z,102397.16
2022-10-05T12:10:29.211Z,102423.72
2022-10-05T12:15:28.675Z,102338.66
2022-10-05T12:20:29.863Z,102347.28
2022-10-05T12:25:28.422Z,102373.59
2022-10-05T12:30:31.556Z,102360.03
2022-10-05T12:35:47.336Z,102343.91
2022-10-05T12:40:46.506Z,102360.28
2022-10-05T12:45:55.287Z,102358.03
2022-10-05T12:50:51.746Z,102343.75
2022-10-05T12:55:54.617Z,102369.88
2022-10-05T13:00:57.430Z,102382.22
2022-10-05T13:06:02.810Z,102386.16
2022-10-05T13:11:04.823Z,102317.56
2022-10-05T13:16:04.806Z,102377.53
2022-10-05T13:21:05.382Z,102381.34
2022-10-05T13:26:08.811Z,102382.53
2022-10-05T13:31:13.218Z,102350.03
2022-10-05T13:36:16.025Z,102368.41
2022-10-05T13:41:18.949Z,102363.84
2022-10-05T13:46:20.413Z,102333.31
2022-10-05T13:51:22.673Z,102366.31
2022-10-05T13:56:22.718Z,102237.53
2022-10-05T14:01:23.650Z,102306.44
2022-10-05T14:06:31.169Z,102352.06
2022-10-05T14:11:32.470Z,102314.00
2022-10-05T14:16:26.604Z,102341.28
2022-10-05T14:21:23.607Z,102345.00
2022-10-05T14:26:32.696Z,102338.44
2022-10-05T14:31:31.653Z,102351.75
2022-10-05T14:36:40.381Z,102317.66
2022-10-05T14:41:37.678Z,102350.06
2022-10-05T14:46:33.274Z,102358.34
2022-10-05T14:51:31.966Z,102296.97
2022-10-05T14:56:47.540Z,102359.66
2022-10-05T15:01:46.162Z,102332.59
2022-10-05T15:06:42.747Z,102369.22
2022-10-05T15:11:49.641Z,102362.81
2022-10-05T15:16:43.532Z,102316.94
2022-10-05T15:41:00.414Z,102321.38
2022-10-05T15:46:08.844Z,102274.56
2022-10-05T15:51:09.479Z,102394.34
2022-10-05T15:56:17.209Z,102211.03
2022-10-05T16:01:49.864Z,102281.84
2022-10-05T16:07:17.176Z,102167.91
2022-10-05T16:12:36.777Z,102217.75
2022-10-05T16:17:42.322Z,102319.13
2022-10-05T16:22:43.837Z,102377.56
2022-10-05T16:28:02.962Z,102322.03
2022-10-05T16:33:19.715Z,102345.88
2022-10-05T16:38:30.274Z,102359.44
2022-10-05T16:43:33.731Z,102417.56
2022-10-05T16:48:41.737Z,102414.97
2022-10-05T16:53:40.099Z,102362.28
2022-10-05T16:58:49.048Z,102243.44
2022-10-05T17:03:59.219Z,102433.72
2022-10-05T17:09:27.456Z,102342.88
2022-10-05T17:14:35.297Z,102394.81
2022-10-05T17:19:45.879Z,102430.84
2022-10-05T17:24:53.657Z,102453.81
2022-10-05T17:29:51.974Z,102408.16
2022-10-05T17:35:20.407Z,102429.06
2022-10-05T17:40:32.881Z,102465.19
2022-10-05T17:46:03.378Z,102466.50
2022-10-05T17:51:27.335Z,102474.00
2022-10-05T17:56:21.069Z,102344.28
2022-10-05T18:01:30.447Z,102483.63
2022-10-05T18:06:35.524Z,102450.03
2022-10-05T18:11:43.659Z,102437.19
2022-10-05T18:17:00.648Z,102493.28
2022-10-05T18:22:03.436Z,102486.88
2022-10-05T18:27:08.331Z,102488.25
2022-10-05T18:32:09.532Z,102453.97
2022-10-05T18:37:22.495Z,102476.09
2022-10-05T18:42:25.003Z,102493.03
2022-10-05T18:47:30.457Z,102487.00
2022-10-05T18:52:37.579Z,102464.22
2022-10-05T18:58:00.033Z,102470.38
2022-10-05T19:02:58.853Z,102398.91
2022-10-05T19:08:01.381Z,102461.97
2022-10-05T19:13:17.736Z,102484.34
2022-10-05T19:18:54.647Z,102443.25
2022-10-05T19:24:15.374Z,102456.66
2022-10-05T19:29:22.696Z,102389.09
2022-10-05T19:34:39.660Z,102502.06
2022-10-05T19:39:40.377Z,102503.22
2022-10-05T19:44:47.306Z,102459.53
2022-10-05T19:49:59.450Z,102447.13
2022-10-05T19:55:13.951Z,102384.81
2022-10-05T20:00:08.811Z,102488.88
2022-10-05T20:05:09.186Z,102519.59
2022-10-05T20:10:21.223Z,102523.09
2022-10-05T20:15:37.432Z,102465.97
2022-10-05T20:20:42.330Z,102458.38
2022-10-05T20:25:40.361Z,102464.47
2022-10-05T20:30:34.305Z,102456.16
2022-10-05T20:35:30.903Z,102503.91
2022-10-05T20:40:25.558Z,102519.38
2022-10-05T20:45:18.729Z,102510.44
2022-10-05T20:50:12.427Z,102466.63
2022-10-05T20:55:06.484Z,102515.28
2022-10-05T21:00:01.113Z,102453.53
2022-10-05T21:04:54.297Z,102525.88
2022-10-05T21:09:47.670Z,102492.06
2022-10-05T21:14:41.440Z,102504.75
2022-10-05T21:19:40.474Z,102506.03
2022-10-05T21:24:34.116Z,102458.69
2022-10-05T21:29:27.239Z,102499.13
2022-10-05T21:34:20.447Z,102503.28
2022-10-05T21:39:14.932Z,102498.66
2022-10-05T21:44:08.094Z,102488.63
2022-10-05T21:49:01.293Z,102492.03
2022-10-05T21:53:58.278Z,102491.13
2022-10-05T21:58:53.385Z,102491.25
2022-10-05T22:03:46.770Z,102424.50
2022-10-05T22:08:40.208Z,102317.06
2022-10-05T22:13:43.178Z,102482.63
2022-10-05T22:18:37.847Z,102426.34
2022-10-05T22:23:31.194Z,102486.00
2022-10-05T22:28:24.521Z,102392.88
2022-10-05T22:33:19.123Z,102480.75
2022-10-05T22:38:13.936Z,102385.41
2022-10-05T22:43:10.193Z,102482.63
2022-10-05T22:48:03.832Z,102438.00
2022-10-05T22:52:57.105Z,102481.03
2022-10-05T22:57:51.919Z,102423.09
2022-10-05T23:02:46.097Z,102484.47
2022-10-05T23:07:40.158Z,102483.72
2022-10-05T23:12:33.994Z,102455.53
2022-10-05T23:17:28.803Z,102421.84
2022-10-05T23:22:22.112Z,102449.22
2022-10-05T23:27:15.493Z,102448.56
2022-10-05T23:32:09.545Z,102428.31
2022-10-05T23:37:04.072Z,102390.47
2022-10-05T23:41:57.333Z,102468.69
2022-10-05T23:46:50.593Z,102466.53
2022-10-05T23:51:44.986Z,102470.56
2022-10-05T23:56:39.505Z,102440.63
